sensor_id;sensor_type;location;lat;lon;timestamp;P1;durP1;ratioP1;P2;durP2;ratioP2
37997;SDS011;24079;51.824;4.682;2023-08-06T00:01:07;6.90;;;4.10;;
37997;SDS011;24079;51.824;4.682;2023-08-06T00:03:33;4.38;;;3.83;;
37997;SDS011;24079;51.824;4.682;2023-08-06T00:05:59;9.30;;;4.30;;
37997;SDS011;24079;51.824;4.682;2023-08-06T00:08:25;5.15;;;3.80;;
37997;SDS011;24079;51.824;4.682;2023-08-06T00:10:51;6.28;;;3.97;;
37997;SDS011;24079;51.824;4.682;2023-08-06T00:13:18;7.28;;;4.00;;
37997;SDS011;24079;51.824;4.682;2023-08-06T00:15:44;6.07;;;3.60;;
37997;SDS011;24079;51.824;4.682;2023-08-06T00:18:10;5.43;;;3.85;;
37997;SDS011;24079;51.824;4.682;2023-08-06T00:20:38;5.25;;;3.85;;
37997;SDS011;24079;51.824;4.682;2023-08-06T00:23:06;7.25;;;3.70;;
37997;SDS011;24079;51.824;4.682;2023-08-06T00:25:32;6.97;;;4.38;;
37997;SDS011;24079;51.824;4.682;2023-08-06T00:27:58;6.20;;;4.10;;
37997;SDS011;24079;51.824;4.682;2023-08-06T00:30:24;4.95;;;3.70;;
37997;SDS011;24079;51.824;4.682;2023-08-06T00:32:50;7.53;;;4.40;;
37997;SDS011;24079;51.824;4.682;2023-08-06T00:35:16;6.50;;;3.75;;
37997;SDS011;24079;51.824;4.682;2023-08-06T00:37:42;5.75;;;4.18;;
37997;SDS011;24079;51.824;4.682;2023-08-06T00:40:08;5.22;;;3.88;;
37997;SDS011;24079;51.824;4.682;2023-08-06T00:42:34;5.05;;;4.05;;
37997;SDS011;24079;51.824;4.682;2023-08-06T00:45:01;6.38;;;3.80;;
37997;SDS011;24079;51.824;4.682;2023-08-06T00:47:27;4.72;;;3.78;;
37997;SDS011;24079;51.824;4.682;2023-08-06T00:49:53;4.55;;;3.55;;
37997;SDS011;24079;51.824;4.682;2023-08-06T00:52:20;6.90;;;3.95;;
37997;SDS011;24079;51.824;4.682;2023-08-06T00:54:46;5.85;;;4.10;;
37997;SDS011;24079;51.824;4.682;2023-08-06T00:57:12;5.88;;;3.60;;
37997;SDS011;24079;51.824;4.682;2023-08-06T00:59:38;7.82;;;4.28;;
37997;SDS011;24079;51.824;4.682;2023-08-06T01:02:04;6.93;;;4.30;;
37997;SDS011;24079;51.824;4.682;2023-08-06T01:04:31;5.38;;;3.80;;
37997;SDS011;24079;51.824;4.682;2023-08-06T01:12:48;4.43;;;3.47;;
37997;SDS011;24079;51.824;4.682;2023-08-06T01:15:46;8.20;;;4.60;;
37997;SDS011;24079;51.824;4.682;2023-08-06T01:18:15;4.80;;;3.80;;
37997;SDS011;24079;51.824;4.682;2023-08-06T01:20:41;5.20;;;3.45;;
37997;SDS011;24079;51.824;4.682;2023-08-06T01:23:08;6.10;;;4.00;;
37997;SDS011;24079;51.824;4.682;2023-08-06T01:25:35;9.05;;;4.30;;
37997;SDS011;24079;51.824;4.682;2023-08-06T01:31:24;5.57;;;4.30;;
37997;SDS011;24079;51.824;4.682;2023-08-06T01:34:02;10.52;;;4.55;;
37997;SDS011;24079;51.824;4.682;2023-08-06T01:36:31;6.60;;;4.50;;
37997;SDS011;24079;51.824;4.682;2023-08-06T01:38:58;5.63;;;4.28;;
37997;SDS011;24079;51.824;4.682;2023-08-06T01:41:24;7.65;;;4.32;;
37997;SDS011;24079;51.824;4.682;2023-08-06T01:43:50;6.10;;;4.80;;
37997;SDS011;24079;51.824;4.682;2023-08-06T01:46:17;8.25;;;4.57;;
37997;SDS011;24079;51.824;4.682;2023-08-06T01:48:43;8.68;;;4.75;;
37997;SDS011;24079;51.824;4.682;2023-08-06T01:51:10;8.25;;;4.90;;
37997;SDS011;24079;51.824;4.682;2023-08-06T01:53:36;5.10;;;4.50;;
37997;SDS011;24079;51.824;4.682;2023-08-06T01:56:02;7.10;;;5.05;;
37997;SDS011;24079;51.824;4.682;2023-08-06T01:58:28;8.55;;;5.35;;
37997;SDS011;24079;51.824;4.682;2023-08-06T02:00:54;8.18;;;5.53;;
37997;SDS011;24079;51.824;4.682;2023-08-06T02:03:20;11.30;;;7.10;;
37997;SDS011;24079;51.824;4.682;2023-08-06T02:05:46;9.15;;;5.80;;
37997;SDS011;24079;51.824;4.682;2023-08-06T02:08:12;10.48;;;7.10;;
37997;SDS011;24079;51.824;4.682;2023-08-06T02:10:38;9.05;;;6.40;;
37997;SDS011;24079;51.824;4.682;2023-08-06T02:13:04;11.10;;;6.50;;
37997;SDS011;24079;51.824;4.682;2023-08-06T02:15:30;8.73;;;6.45;;
37997;SDS011;24079;51.824;4.682;2023-08-06T02:17:57;8.93;;;7.80;;
37997;SDS011;24079;51.824;4.682;2023-08-06T02:20:23;9.73;;;6.82;;
37997;SDS011;24079;51.824;4.682;2023-08-06T02:22:49;8.40;;;6.53;;
37997;SDS011;24079;51.824;4.682;2023-08-06T02:25:15;10.88;;;7.18;;
37997;SDS011;24079;51.824;4.682;2023-08-06T02:27:41;9.07;;;6.55;;
37997;SDS011;24079;51.824;4.682;2023-08-06T02:30:08;11.02;;;7.75;;
37997;SDS011;24079;51.824;4.682;2023-08-06T02:32:34;15.07;;;8.38;;
37997;SDS011;24079;51.824;4.682;2023-08-06T02:35:01;12.02;;;8.73;;
37997;SDS011;24079;51.824;4.682;2023-08-06T02:37:28;12.25;;;8.32;;
37997;SDS011;24079;51.824;4.682;2023-08-06T02:39:54;8.77;;;7.47;;
37997;SDS011;24079;51.824;4.682;2023-08-06T02:42:20;12.85;;;8.75;;
37997;SDS011;24079;51.824;4.682;2023-08-06T02:44:46;11.88;;;8.13;;
37997;SDS011;24079;51.824;4.682;2023-08-06T02:47:12;11.10;;;7.68;;
37997;SDS011;24079;51.824;4.682;2023-08-06T02:49:38;14.50;;;10.10;;
37997;SDS011;24079;51.824;4.682;2023-08-06T02:52:05;14.00;;;9.27;;
37997;SDS011;24079;51.824;4.682;2023-08-06T02:54:31;10.85;;;8.32;;
37997;SDS011;24079;51.824;4.682;2023-08-06T02:56:58;12.70;;;8.73;;
37997;SDS011;24079;51.824;4.682;2023-08-06T02:59:24;13.63;;;9.63;;
37997;SDS011;24079;51.824;4.682;2023-08-06T03:01:50;15.15;;;9.65;;
37997;SDS011;24079;51.824;4.682;2023-08-06T03:04:16;11.52;;;9.10;;
37997;SDS011;24079;51.824;4.682;2023-08-06T03:06:43;12.95;;;9.68;;
37997;SDS011;24079;51.824;4.682;2023-08-06T03:09:09;13.40;;;10.63;;
37997;SDS011;24079;51.824;4.682;2023-08-06T03:11:36;12.65;;;9.70;;
37997;SDS011;24079;51.824;4.682;2023-08-06T03:14:02;13.82;;;10.48;;
37997;SDS011;24079;51.824;4.682;2023-08-06T03:16:28;13.40;;;9.50;;
37997;SDS011;24079;51.824;4.682;2023-08-06T03:18:54;16.02;;;10.52;;
37997;SDS011;24079;51.824;4.682;2023-08-06T03:21:19;16.58;;;9.82;;
37997;SDS011;24079;51.824;4.682;2023-08-06T03:23:46;12.68;;;8.95;;
37997;SDS011;24079;51.824;4.682;2023-08-06T03:26:13;12.65;;;10.75;;
37997;SDS011;24079;51.824;4.682;2023-08-06T03:28:39;17.45;;;11.93;;
37997;SDS011;24079;51.824;4.682;2023-08-06T03:31:04;16.85;;;11.20;;
37997;SDS011;24079;51.824;4.682;2023-08-06T03:33:30;17.92;;;12.05;;
37997;SDS011;24079;51.824;4.682;2023-08-06T03:35:56;14.27;;;11.40;;
37997;SDS011;24079;51.824;4.682;2023-08-06T03:38:22;17.13;;;11.50;;
37997;SDS011;24079;51.824;4.682;2023-08-06T03:40:49;17.10;;;12.10;;
37997;SDS011;24079;51.824;4.682;2023-08-06T03:43:15;16.10;;;11.25;;
37997;SDS011;24079;51.824;4.682;2023-08-06T03:45:41;13.93;;;11.57;;
37997;SDS011;24079;51.824;4.682;2023-08-06T03:48:08;15.30;;;12.10;;
37997;SDS011;24079;51.824;4.682;2023-08-06T03:50:34;14.90;;;11.65;;
37997;SDS011;24079;51.824;4.682;2023-08-06T03:53:00;16.65;;;12.80;;
37997;SDS011;24079;51.824;4.682;2023-08-06T03:55:27;14.52;;;11.70;;
37997;SDS011;24079;51.824;4.682;2023-08-06T03:57:53;16.50;;;11.82;;
37997;SDS011;24079;51.824;4.682;2023-08-06T04:00:19;16.05;;;12.52;;
37997;SDS011;24079;51.824;4.682;2023-08-06T04:02:45;15.32;;;11.48;;
37997;SDS011;24079;51.824;4.682;2023-08-06T04:05:11;11.38;;;8.65;;
37997;SDS011;24079;51.824;4.682;2023-08-06T04:07:38;7.88;;;6.50;;
37997;SDS011;24079;51.824;4.682;2023-08-06T04:10:04;7.25;;;5.60;;
37997;SDS011;24079;51.824;4.682;2023-08-06T04:12:30;7.18;;;4.93;;
37997;SDS011;24079;51.824;4.682;2023-08-06T04:14:58;6.78;;;4.82;;
37997;SDS011;24079;51.824;4.682;2023-08-06T04:17:26;5.10;;;4.25;;
37997;SDS011;24079;51.824;4.682;2023-08-06T04:19:53;3.38;;;2.58;;
37997;SDS011;24079;51.824;4.682;2023-08-06T04:22:20;3.33;;;3.03;;
37997;SDS011;24079;51.824;4.682;2023-08-06T04:24:48;4.50;;;3.70;;
37997;SDS011;24079;51.824;4.682;2023-08-06T04:27:14;8.63;;;3.50;;
37997;SDS011;24079;51.824;4.682;2023-08-06T04:29:42;5.57;;;3.83;;
37997;SDS011;24079;51.824;4.682;2023-08-06T04:32:09;9.23;;;4.70;;
37997;SDS011;24079;51.824;4.682;2023-08-06T04:34:36;4.72;;;3.20;;
37997;SDS011;24079;51.824;4.682;2023-08-06T04:37:02;5.60;;;3.92;;
37997;SDS011;24079;51.824;4.682;2023-08-06T04:39:29;12.32;;;4.50;;
37997;SDS011;24079;51.824;4.682;2023-08-06T04:41:56;12.18;;;4.07;;
37997;SDS011;24079;51.824;4.682;2023-08-06T04:44:25;12.43;;;3.95;;
37997;SDS011;24079;51.824;4.682;2023-08-06T04:46:51;10.75;;;3.95;;
37997;SDS011;24079;51.824;4.682;2023-08-06T04:49:18;8.27;;;4.35;;
37997;SDS011;24079;51.824;4.682;2023-08-06T04:51:47;8.48;;;4.03;;
37997;SDS011;24079;51.824;4.682;2023-08-06T04:54:13;11.98;;;4.60;;
37997;SDS011;24079;51.824;4.682;2023-08-06T04:56:39;9.20;;;4.10;;
37997;SDS011;24079;51.824;4.682;2023-08-06T04:59:05;12.00;;;4.45;;
37997;SDS011;24079;51.824;4.682;2023-08-06T05:01:31;13.02;;;4.30;;
37997;SDS011;24079;51.824;4.682;2023-08-06T05:03:58;14.95;;;4.97;;
37997;SDS011;24079;51.824;4.682;2023-08-06T05:06:24;9.02;;;4.60;;
37997;SDS011;24079;51.824;4.682;2023-08-06T05:08:50;12.35;;;4.88;;
37997;SDS011;24079;51.824;4.682;2023-08-06T05:11:16;7.70;;;4.22;;
37997;SDS011;24079;51.824;4.682;2023-08-06T05:13:42;9.07;;;4.80;;
37997;SDS011;24079;51.824;4.682;2023-08-06T05:16:09;11.88;;;4.43;;
37997;SDS011;24079;51.824;4.682;2023-08-06T05:18:35;10.05;;;4.65;;
37997;SDS011;24079;51.824;4.682;2023-08-06T05:21:03;10.35;;;4.22;;
37997;SDS011;24079;51.824;4.682;2023-08-06T05:23:29;8.90;;;4.32;;
37997;SDS011;24079;51.824;4.682;2023-08-06T05:25:55;9.07;;;4.13;;
37997;SDS011;24079;51.824;4.682;2023-08-06T05:28:21;12.15;;;4.95;;
37997;SDS011;24079;51.824;4.682;2023-08-06T05:30:48;14.55;;;5.00;;
37997;SDS011;24079;51.824;4.682;2023-08-06T05:33:14;11.65;;;4.53;;
37997;SDS011;24079;51.824;4.682;2023-08-06T05:35:40;9.65;;;5.07;;
37997;SDS011;24079;51.824;4.682;2023-08-06T05:38:07;12.18;;;5.50;;
37997;SDS011;24079;51.824;4.682;2023-08-06T05:40:33;12.77;;;5.18;;
37997;SDS011;24079;51.824;4.682;2023-08-06T05:42:59;15.73;;;5.55;;
37997;SDS011;24079;51.824;4.682;2023-08-06T05:45:26;17.55;;;6.25;;
37997;SDS011;24079;51.824;4.682;2023-08-06T05:47:52;9.15;;;5.00;;
37997;SDS011;24079;51.824;4.682;2023-08-06T05:50:19;12.10;;;5.47;;
37997;SDS011;24079;51.824;4.682;2023-08-06T05:52:45;10.73;;;5.38;;
37997;SDS011;24079;51.824;4.682;2023-08-06T05:55:12;13.98;;;5.40;;
37997;SDS011;24079;51.824;4.682;2023-08-06T05:57:38;12.13;;;5.50;;
37997;SDS011;24079;51.824;4.682;2023-08-06T06:00:04;8.70;;;5.07;;
37997;SDS011;24079;51.824;4.682;2023-08-06T06:02:32;13.15;;;5.32;;
37997;SDS011;24079;51.824;4.682;2023-08-06T06:04:58;15.55;;;5.10;;
37997;SDS011;24079;51.824;4.682;2023-08-06T06:07:27;12.88;;;5.35;;
37997;SDS011;24079;51.824;4.682;2023-08-06T06:09:53;9.13;;;5.30;;
37997;SDS011;24079;51.824;4.682;2023-08-06T06:12:19;10.70;;;4.60;;
37997;SDS011;24079;51.824;4.682;2023-08-06T06:14:47;11.48;;;5.00;;
37997;SDS011;24079;51.824;4.682;2023-08-06T06:17:14;15.38;;;4.65;;
37997;SDS011;24079;51.824;4.682;2023-08-06T06:19:40;12.32;;;4.78;;
37997;SDS011;24079;51.824;4.682;2023-08-06T06:22:06;9.65;;;4.00;;
37997;SDS011;24079;51.824;4.682;2023-08-06T06:24:32;15.98;;;4.07;;
37997;SDS011;24079;51.824;4.682;2023-08-06T06:26:59;9.45;;;3.42;;
37997;SDS011;24079;51.824;4.682;2023-08-06T06:29:25;9.52;;;3.25;;
37997;SDS011;24079;51.824;4.682;2023-08-06T06:31:52;13.02;;;3.75;;
37997;SDS011;24079;51.824;4.682;2023-08-06T06:34:18;13.30;;;3.85;;
37997;SDS011;24079;51.824;4.682;2023-08-06T06:36:44;12.50;;;3.63;;
37997;SDS011;24079;51.824;4.682;2023-08-06T06:39:10;8.63;;;3.00;;
37997;SDS011;24079;51.824;4.682;2023-08-06T06:41:37;9.40;;;3.50;;
37997;SDS011;24079;51.824;4.682;2023-08-06T06:44:05;8.50;;;3.45;;
37997;SDS011;24079;51.824;4.682;2023-08-06T06:46:31;7.63;;;3.00;;
37997;SDS011;24079;51.824;4.682;2023-08-06T06:48:57;9.80;;;2.78;;
37997;SDS011;24079;51.824;4.682;2023-08-06T06:51:24;10.98;;;3.20;;
37997;SDS011;24079;51.824;4.682;2023-08-06T06:53:50;10.02;;;2.70;;
37997;SDS011;24079;51.824;4.682;2023-08-06T06:56:16;8.27;;;2.65;;
37997;SDS011;24079;51.824;4.682;2023-08-06T06:58:42;6.43;;;2.28;;
37997;SDS011;24079;51.824;4.682;2023-08-06T07:01:08;8.93;;;2.63;;
37997;SDS011;24079;51.824;4.682;2023-08-06T07:03:37;10.40;;;2.20;;
37997;SDS011;24079;51.824;4.682;2023-08-06T07:06:03;6.95;;;2.00;;
37997;SDS011;24079;51.824;4.682;2023-08-06T07:08:30;4.68;;;2.03;;
37997;SDS011;24079;51.824;4.682;2023-08-06T07:11:02;8.27;;;2.03;;
37997;SDS011;24079;51.824;4.682;2023-08-06T07:13:29;5.13;;;2.00;;
37997;SDS011;24079;51.824;4.682;2023-08-06T07:15:56;3.30;;;1.95;;
37997;SDS011;24079;51.824;4.682;2023-08-06T07:18:22;6.15;;;1.90;;
37997;SDS011;24079;51.824;4.682;2023-08-06T07:20:49;4.78;;;2.28;;
37997;SDS011;24079;51.824;4.682;2023-08-06T07:23:23;5.50;;;2.00;;
37997;SDS011;24079;51.824;4.682;2023-08-06T07:25:50;7.90;;;2.47;;
37997;SDS011;24079;51.824;4.682;2023-08-06T07:28:16;7.22;;;2.30;;
37997;SDS011;24079;51.824;4.682;2023-08-06T07:30:43;7.93;;;2.33;;
37997;SDS011;24079;51.824;4.682;2023-08-06T07:33:10;6.85;;;2.58;;
37997;SDS011;24079;51.824;4.682;2023-08-06T07:35:37;9.68;;;2.70;;
37997;SDS011;24079;51.824;4.682;2023-08-06T07:38:04;8.75;;;2.75;;
37997;SDS011;24079;51.824;4.682;2023-08-06T07:40:30;10.93;;;2.67;;
37997;SDS011;24079;51.824;4.682;2023-08-06T07:42:56;7.07;;;2.60;;
37997;SDS011;24079;51.824;4.682;2023-08-06T07:45:22;7.88;;;2.65;;
37997;SDS011;24079;51.824;4.682;2023-08-06T07:47:48;10.55;;;2.72;;
37997;SDS011;24079;51.824;4.682;2023-08-06T07:50:14;5.93;;;2.63;;
37997;SDS011;24079;51.824;4.682;2023-08-06T07:52:40;7.70;;;3.05;;
37997;SDS011;24079;51.824;4.682;2023-08-06T07:55:07;7.47;;;2.80;;
37997;SDS011;24079;51.824;4.682;2023-08-06T07:57:33;14.95;;;3.00;;
37997;SDS011;24079;51.824;4.682;2023-08-06T08:00:00;9.80;;;2.95;;
37997;SDS011;24079;51.824;4.682;2023-08-06T08:02:27;6.07;;;2.40;;
37997;SDS011;24079;51.824;4.682;2023-08-06T08:04:53;7.65;;;2.80;;
37997;SDS011;24079;51.824;4.682;2023-08-06T08:07:20;4.03;;;2.67;;
37997;SDS011;24079;51.824;4.682;2023-08-06T08:09:46;8.77;;;2.80;;
37997;SDS011;24079;51.824;4.682;2023-08-06T08:12:13;9.63;;;2.47;;
37997;SDS011;24079;51.824;4.682;2023-08-06T08:14:39;6.32;;;2.50;;
37997;SDS011;24079;51.824;4.682;2023-08-06T08:17:06;7.18;;;2.85;;
37997;SDS011;24079;51.824;4.682;2023-08-06T08:19:32;6.30;;;2.38;;
37997;SDS011;24079;51.824;4.682;2023-08-06T08:21:58;11.30;;;3.38;;
37997;SDS011;24079;51.824;4.682;2023-08-06T08:24:25;5.68;;;2.55;;
37997;SDS011;24079;51.824;4.682;2023-08-06T08:26:51;9.55;;;2.78;;
37997;SDS011;24079;51.824;4.682;2023-08-06T08:29:19;8.55;;;2.88;;
37997;SDS011;24079;51.824;4.682;2023-08-06T08:31:46;5.28;;;2.50;;
37997;SDS011;24079;51.824;4.682;2023-08-06T08:34:17;6.05;;;2.80;;
37997;SDS011;24079;51.824;4.682;2023-08-06T08:36:43;6.07;;;2.50;;
37997;SDS011;24079;51.824;4.682;2023-08-06T08:39:13;7.85;;;2.63;;
37997;SDS011;24079;51.824;4.682;2023-08-06T08:41:39;6.03;;;2.35;;
37997;SDS011;24079;51.824;4.682;2023-08-06T08:44:08;9.43;;;2.35;;
37997;SDS011;24079;51.824;4.682;2023-08-06T08:46:38;6.30;;;2.03;;
37997;SDS011;24079;51.824;4.682;2023-08-06T08:49:06;8.50;;;2.20;;
37997;SDS011;24079;51.824;4.682;2023-08-06T08:51:33;6.82;;;2.50;;
37997;SDS011;24079;51.824;4.682;2023-08-06T08:54:03;5.85;;;2.45;;
37997;SDS011;24079;51.824;4.682;2023-08-06T08:56:29;6.63;;;2.50;;
37997;SDS011;24079;51.824;4.682;2023-08-06T08:58:57;3.63;;;2.15;;
37997;SDS011;24079;51.824;4.682;2023-08-06T09:01:23;6.47;;;2.30;;
37997;SDS011;24079;51.824;4.682;2023-08-06T09:03:50;6.97;;;2.63;;
37997;SDS011;24079;51.824;4.682;2023-08-06T09:06:18;7.13;;;2.50;;
37997;SDS011;24079;51.824;4.682;2023-08-06T09:08:51;3.58;;;2.25;;
37997;SDS011;24079;51.824;4.682;2023-08-06T09:11:24;6.80;;;2.15;;
37997;SDS011;24079;51.824;4.682;2023-08-06T09:13:50;3.97;;;2.10;;
37997;SDS011;24079;51.824;4.682;2023-08-06T09:16:16;5.43;;;2.35;;
37997;SDS011;24079;51.824;4.682;2023-08-06T09:18:42;5.95;;;2.00;;
37997;SDS011;24079;51.824;4.682;2023-08-06T09:21:12;3.22;;;1.80;;
37997;SDS011;24079;51.824;4.682;2023-08-06T09:23:40;8.68;;;2.30;;
37997;SDS011;24079;51.824;4.682;2023-08-06T09:26:05;4.28;;;2.25;;
37997;SDS011;24079;51.824;4.682;2023-08-06T09:28:37;6.63;;;2.03;;
37997;SDS011;24079;51.824;4.682;2023-08-06T09:31:04;3.30;;;1.55;;
37997;SDS011;24079;51.824;4.682;2023-08-06T09:33:31;3.20;;;2.00;;
37997;SDS011;24079;51.824;4.682;2023-08-06T09:35:57;6.50;;;1.98;;
37997;SDS011;24079;51.824;4.682;2023-08-06T09:38:33;5.00;;;2.00;;
37997;SDS011;24079;51.824;4.682;2023-08-06T09:41:05;2.72;;;1.92;;
37997;SDS011;24079;51.824;4.682;2023-08-06T09:43:41;3.70;;;2.10;;
37997;SDS011;24079;51.824;4.682;2023-08-06T09:46:12;4.43;;;1.83;;
37997;SDS011;24079;51.824;4.682;2023-08-06T09:48:39;5.60;;;2.53;;
37997;SDS011;24079;51.824;4.682;2023-08-06T09:51:07;3.97;;;1.90;;
37997;SDS011;24079;51.824;4.682;2023-08-06T09:53:34;3.88;;;1.70;;
37997;SDS011;24079;51.824;4.682;2023-08-06T09:56:01;4.00;;;2.08;;
37997;SDS011;24079;51.824;4.682;2023-08-06T09:58:27;3.90;;;1.88;;
37997;SDS011;24079;51.824;4.682;2023-08-06T10:00:56;4.10;;;2.17;;
37997;SDS011;24079;51.824;4.682;2023-08-06T10:03:23;4.18;;;1.60;;
37997;SDS011;24079;51.824;4.682;2023-08-06T10:05:50;3.72;;;1.95;;
37997;SDS011;24079;51.824;4.682;2023-08-06T10:08:16;3.20;;;1.65;;
37997;SDS011;24079;51.824;4.682;2023-08-06T10:10:43;3.47;;;1.80;;
37997;SDS011;24079;51.824;4.682;2023-08-06T10:13:10;6.28;;;1.73;;
37997;SDS011;24079;51.824;4.682;2023-08-06T10:15:38;4.00;;;1.50;;
37997;SDS011;24079;51.824;4.682;2023-08-06T10:18:05;3.20;;;1.67;;
37997;SDS011;24079;51.824;4.682;2023-08-06T10:20:33;5.03;;;1.40;;
37997;SDS011;24079;51.824;4.682;2023-08-06T10:23:06;3.60;;;1.42;;
37997;SDS011;24079;51.824;4.682;2023-08-06T10:25:35;4.78;;;1.83;;
37997;SDS011;24079;51.824;4.682;2023-08-06T10:28:07;4.53;;;1.38;;
37997;SDS011;24079;51.824;4.682;2023-08-06T10:30:41;3.22;;;1.42;;
37997;SDS011;24079;51.824;4.682;2023-08-06T10:33:11;4.47;;;1.60;;
37997;SDS011;24079;51.824;4.682;2023-08-06T10:38:08;3.97;;;1.38;;
37997;SDS011;24079;51.824;4.682;2023-08-06T10:40:35;6.40;;;1.50;;
37997;SDS011;24079;51.824;4.682;2023-08-06T10:43:04;2.72;;;1.33;;
37997;SDS011;24079;51.824;4.682;2023-08-06T10:45:36;3.35;;;1.27;;
37997;SDS011;24079;51.824;4.682;2023-08-06T10:48:03;5.57;;;1.40;;
37997;SDS011;24079;51.824;4.682;2023-08-06T10:50:30;2.22;;;1.30;;
37997;SDS011;24079;51.824;4.682;2023-08-06T10:52:57;5.38;;;1.23;;
37997;SDS011;24079;51.824;4.682;2023-08-06T10:55:24;5.68;;;1.20;;
37997;SDS011;24079;51.824;4.682;2023-08-06T10:57:54;3.63;;;1.13;;
37997;SDS011;24079;51.824;4.682;2023-08-06T11:00:22;3.85;;;1.20;;
37997;SDS011;24079;51.824;4.682;2023-08-06T11:02:51;3.17;;;1.40;;
37997;SDS011;24079;51.824;4.682;2023-08-06T11:05:19;2.08;;;1.00;;
37997;SDS011;24079;51.824;4.682;2023-08-06T11:07:45;2.65;;;1.40;;
37997;SDS011;24079;51.824;4.682;2023-08-06T11:10:13;3.55;;;1.17;;
37997;SDS011;24079;51.824;4.682;2023-08-06T11:12:39;3.70;;;1.10;;
37997;SDS011;24079;51.824;4.682;2023-08-06T11:15:06;2.53;;;0.80;;
37997;SDS011;24079;51.824;4.682;2023-08-06T11:17:33;2.95;;;1.30;;
37997;SDS011;24079;51.824;4.682;2023-08-06T11:20:00;2.10;;;1.20;;
37997;SDS011;24079;51.824;4.682;2023-08-06T11:22:28;2.75;;;1.40;;
37997;SDS011;24079;51.824;4.682;2023-08-06T11:24:54;5.55;;;1.30;;
37997;SDS011;24079;51.824;4.682;2023-08-06T11:27:20;4.18;;;1.30;;
37997;SDS011;24079;51.824;4.682;2023-08-06T11:29:47;2.83;;;1.30;;
37997;SDS011;24079;51.824;4.682;2023-08-06T11:32:13;3.15;;;1.50;;
37997;SDS011;24079;51.824;4.682;2023-08-06T11:34:39;5.75;;;1.67;;
37997;SDS011;24079;51.824;4.682;2023-08-06T11:37:06;5.05;;;1.63;;
37997;SDS011;24079;51.824;4.682;2023-08-06T11:39:33;3.85;;;1.58;;
37997;SDS011;24079;51.824;4.682;2023-08-06T11:42:00;3.10;;;1.45;;
37997;SDS011;24079;51.824;4.682;2023-08-06T11:44:29;3.45;;;1.67;;
37997;SDS011;24079;51.824;4.682;2023-08-06T11:47:16;2.50;;;1.40;;
37997;SDS011;24079;51.824;4.682;2023-08-06T11:49:44;4.57;;;1.38;;
37997;SDS011;24079;51.824;4.682;2023-08-06T11:52:19;4.53;;;1.60;;
37997;SDS011;24079;51.824;4.682;2023-08-06T11:55:09;3.38;;;1.30;;
37997;SDS011;24079;51.824;4.682;2023-08-06T11:57:37;5.38;;;2.08;;
37997;SDS011;24079;51.824;4.682;2023-08-06T12:00:06;3.88;;;1.60;;
37997;SDS011;24079;51.824;4.682;2023-08-06T12:02:34;6.13;;;1.73;;
37997;SDS011;24079;51.824;4.682;2023-08-06T12:05:03;5.85;;;1.75;;
37997;SDS011;24079;51.824;4.682;2023-08-06T12:07:42;8.52;;;1.67;;
37997;SDS011;24079;51.824;4.682;2023-08-06T12:10:22;7.00;;;1.85;;
37997;SDS011;24079;51.824;4.682;2023-08-06T12:12:49;5.10;;;1.70;;
37997;SDS011;24079;51.824;4.682;2023-08-06T12:15:16;4.85;;;1.35;;
37997;SDS011;24079;51.824;4.682;2023-08-06T12:17:42;2.75;;;1.20;;
37997;SDS011;24079;51.824;4.682;2023-08-06T12:20:08;1.73;;;0.90;;
37997;SDS011;24079;51.824;4.682;2023-08-06T12:22:34;4.50;;;1.60;;
37997;SDS011;24079;51.824;4.682;2023-08-06T12:25:01;2.88;;;1.20;;
37997;SDS011;24079;51.824;4.682;2023-08-06T12:27:35;3.15;;;1.48;;
37997;SDS011;24079;51.824;4.682;2023-08-06T12:30:02;3.05;;;1.33;;
37997;SDS011;24079;51.824;4.682;2023-08-06T12:32:29;5.97;;;1.65;;
37997;SDS011;24079;51.824;4.682;2023-08-06T12:34:54;4.88;;;1.75;;
37997;SDS011;24079;51.824;4.682;2023-08-06T12:37:20;3.10;;;1.50;;
37997;SDS011;24079;51.824;4.682;2023-08-06T12:39:46;3.33;;;1.70;;
37997;SDS011;24079;51.824;4.682;2023-08-06T12:42:12;2.92;;;1.52;;
37997;SDS011;24079;51.824;4.682;2023-08-06T12:44:38;6.65;;;1.85;;
37997;SDS011;24079;51.824;4.682;2023-08-06T12:47:04;6.95;;;1.60;;
37997;SDS011;24079;51.824;4.682;2023-08-06T12:49:30;5.18;;;1.38;;
37997;SDS011;24079;51.824;4.682;2023-08-06T12:51:58;6.45;;;1.65;;
37997;SDS011;24079;51.824;4.682;2023-08-06T12:54:25;3.88;;;1.40;;
37997;SDS011;24079;51.824;4.682;2023-08-06T12:56:52;3.78;;;1.42;;
37997;SDS011;24079;51.824;4.682;2023-08-06T12:59:18;4.25;;;1.60;;
37997;SDS011;24079;51.824;4.682;2023-08-06T13:01:45;7.35;;;1.75;;
37997;SDS011;24079;51.824;4.682;2023-08-06T13:04:11;3.55;;;1.00;;
37997;SDS011;24079;51.824;4.682;2023-08-06T13:06:37;3.90;;;1.10;;
37997;SDS011;24079;51.824;4.682;2023-08-06T13:09:11;2.55;;;1.05;;
37997;SDS011;24079;51.824;4.682;2023-08-06T13:11:38;4.35;;;1.30;;
37997;SDS011;24079;51.824;4.682;2023-08-06T13:14:05;2.53;;;1.20;;
37997;SDS011;24079;51.824;4.682;2023-08-06T13:16:33;8.40;;;1.30;;
37997;SDS011;24079;51.824;4.682;2023-08-06T13:18:59;3.83;;;1.25;;
37997;SDS011;24079;51.824;4.682;2023-08-06T13:21:31;4.50;;;1.40;;
37997;SDS011;24079;51.824;4.682;2023-08-06T13:24:03;4.40;;;0.77;;
37997;SDS011;24079;51.824;4.682;2023-08-06T13:26:29;4.00;;;0.75;;
37997;SDS011;24079;51.824;4.682;2023-08-06T13:28:58;3.55;;;0.88;;
37997;SDS011;24079;51.824;4.682;2023-08-06T13:31:26;2.05;;;0.77;;
37997;SDS011;24079;51.824;4.682;2023-08-06T13:33:52;1.73;;;0.68;;
37997;SDS011;24079;51.824;4.682;2023-08-06T13:36:23;2.95;;;0.98;;
37997;SDS011;24079;51.824;4.682;2023-08-06T13:38:50;5.88;;;1.00;;
37997;SDS011;24079;51.824;4.682;2023-08-06T13:41:16;2.28;;;0.80;;
37997;SDS011;24079;51.824;4.682;2023-08-06T13:43:42;3.55;;;1.17;;
37997;SDS011;24079;51.824;4.682;2023-08-06T13:46:09;2.53;;;0.75;;
37997;SDS011;24079;51.824;4.682;2023-08-06T13:48:40;3.10;;;0.82;;
37997;SDS011;24079;51.824;4.682;2023-08-06T13:51:06;4.43;;;0.93;;
37997;SDS011;24079;51.824;4.682;2023-08-06T13:53:32;7.28;;;1.42;;
37997;SDS011;24079;51.824;4.682;2023-08-06T13:55:58;9.40;;;1.85;;
37997;SDS011;24079;51.824;4.682;2023-08-06T13:58:24;8.70;;;2.08;;
37997;SDS011;24079;51.824;4.682;2023-08-06T14:00:51;10.57;;;1.80;;
37997;SDS011;24079;51.824;4.682;2023-08-06T14:03:20;8.63;;;1.45;;
37997;SDS011;24079;51.824;4.682;2023-08-06T14:05:45;10.38;;;1.70;;
37997;SDS011;24079;51.824;4.682;2023-08-06T14:08:11;6.68;;;1.13;;
37997;SDS011;24079;51.824;4.682;2023-08-06T14:10:38;4.63;;;1.35;;
37997;SDS011;24079;51.824;4.682;2023-08-06T14:13:04;5.72;;;1.45;;
37997;SDS011;24079;51.824;4.682;2023-08-06T14:15:30;8.95;;;1.88;;
37997;SDS011;24079;51.824;4.682;2023-08-06T14:17:58;7.53;;;1.30;;
37997;SDS011;24079;51.824;4.682;2023-08-06T14:20:24;5.72;;;1.10;;
37997;SDS011;24079;51.824;4.682;2023-08-06T14:22:50;3.17;;;0.80;;
37997;SDS011;24079;51.824;4.682;2023-08-06T14:25:16;2.85;;;0.85;;
37997;SDS011;24079;51.824;4.682;2023-08-06T14:27:42;5.22;;;0.93;;
37997;SDS011;24079;51.824;4.682;2023-08-06T14:30:09;5.40;;;1.00;;
37997;SDS011;24079;51.824;4.682;2023-08-06T14:32:35;4.30;;;0.90;;
37997;SDS011;24079;51.824;4.682;2023-08-06T14:35:01;4.57;;;1.35;;
37997;SDS011;24079;51.824;4.682;2023-08-06T14:37:27;4.15;;;1.23;;
37997;SDS011;24079;51.824;4.682;2023-08-06T14:39:53;10.65;;;1.70;;
37997;SDS011;24079;51.824;4.682;2023-08-06T14:42:19;5.60;;;1.42;;
37997;SDS011;24079;51.824;4.682;2023-08-06T14:44:46;6.00;;;1.23;;
37997;SDS011;24079;51.824;4.682;2023-08-06T14:47:12;3.22;;;1.05;;
37997;SDS011;24079;51.824;4.682;2023-08-06T14:49:38;4.05;;;1.08;;
37997;SDS011;24079;51.824;4.682;2023-08-06T14:52:05;4.68;;;0.90;;
37997;SDS011;24079;51.824;4.682;2023-08-06T14:54:31;7.03;;;1.15;;